Time;durP1;ratioP1;P1;durP2;ratioP2;P2;SDS_P1;SDS_P2;PMS_P1;PMS_P2;Temp;Humidity;BMP_temperature;BMP_pressure;BME280_temperature;BME280_humidity;BME280_pressure;Samples;Min_cycle;Max_cycle;Signal;HPM_P1;HPM_P2
2022/01/19 00:01:36;;;;;;;36.47;17.53;;;;;;;3.26;100.00;103300.34;5093819;28;20031;-36
2022/01/19 00:04:01;;;;;;;32.27;17.30;;;;;;;3.30;100.00;103288.44;5094898;28;20024;-36
2022/01/19 00:06:27;;;;;;;37.63;18.60;;;;;;;3.25;100.00;103287.09;5094097;28;20086;-36
2022/01/19 00:08:52;;;;;;;38.10;17.67;;;;;;;3.26;100.00;103278.09;5094581;28;20213;-36
2022/01/19 00:11:19;;;;;;;37.92;17.60;;;;;;;3.16;100.00;103267.28;5093972;28;20024;-36
2022/01/19 00:13:44;;;;;;;32.85;15.68;;;;;;;3.13;100.00;103272.91;5094158;28;20024;-36
2022/01/19 00:16:09;;;;;;;31.80;16.03;;;;;;;3.08;100.00;103275.94;5094352;28;20028;-36
2022/01/19 00:18:35;;;;;;;36.80;17.20;;;;;;;3.03;100.00;103282.63;5093691;28;20024;-36
2022/01/19 00:21:01;;;;;;;34.03;16.83;;;;;;;2.96;100.00;103289.44;5093974;28;20055;-36
2022/01/19 00:23:27;;;;;;;29.98;15.35;;;;;;;2.94;100.00;103283.38;5094127;28;20401;-36
2022/01/19 00:25:55;;;;;;;29.48;15.45;;;;;;;2.81;100.00;103268.28;5093802;28;20032;-36
2022/01/19 00:28:21;;;;;;;30.65;14.73;;;;;;;2.75;100.00;103252.75;5093724;28;20109;-36
2022/01/19 00:30:47;;;;;;;29.10;13.27;;;;;;;2.87;100.00;103245.56;5093359;28;20022;-36
2022/01/19 00:33:13;;;;;;;24.30;13.02;;;;;;;2.81;100.00;103227.34;5093589;28;20118;-36
2022/01/19 00:35:39;;;;;;;25.02;14.25;;;;;;;2.74;100.00;103213.63;5094063;28;20486;-36
2022/01/19 00:38:07;;;;;;;19.88;11.95;;;;;;;2.69;100.00;103180.25;5093465;28;20024;-36
2022/01/19 00:40:32;;;;;;;26.48;14.05;;;;;;;2.69;100.00;103190.94;5094034;28;20438;-36
2022/01/19 00:42:58;;;;;;;28.42;14.80;;;;;;;2.53;100.00;103154.72;5093452;28;20076;-36
2022/01/19 00:45:23;;;;;;;24.20;13.80;;;;;;;2.69;100.00;103190.94;5094213;28;20051;-36
2022/01/19 00:47:49;;;;;;;26.13;13.90;;;;;;;2.64;100.00;103217.16;5093384;28;20360;-36
2022/01/19 00:50:18;;;;;;;29.65;13.65;;;;;;;2.29;100.00;103170.88;5093449;28;20040;-36
2022/01/19 00:52:44;;;;;;;31.02;14.88;;;;;;;2.43;100.00;103215.19;5093025;28;20040;-36
2022/01/19 00:55:11;;;;;;;26.83;15.00;;;;;;;2.33;100.00;103219.53;5093892;28;20039;-36
2022/01/19 00:57:37;;;;;;;22.10;12.75;;;;;;;2.33;100.00;103225.72;5093393;28;20024;-36
2022/01/19 01:00:05;;;;;;;23.50;12.93;;;;;;;2.19;100.00;103217.06;5093239;28;20039;-36
2022/01/19 01:02:31;;;;;;;27.45;14.32;;;;;;;2.30;100.00;103228.66;5093299;28;20328;-36
2022/01/19 01:04:56;;;;;;;24.73;13.95;;;;;;;2.30;100.00;103225.97;5093252;28;20107;-36
2022/01/19 01:07:22;;;;;;;20.02;12.43;;;;;;;2.33;100.00;103211.53;5093295;28;20032;-36
2022/01/19 01:09:48;;;;;;;28.27;13.65;;;;;;;2.28;100.00;103195.00;5093090;28;20027;-36
2022/01/19 01:12:20;;;;;;;18.65;11.63;;;;;;;2.28;99.95;103192.34;5092786;28;20032;-36
2022/01/19 01:20:14;;;;;;;23.38;13.23;;;;;;;2.27;100.00;103156.78;5093567;28;20061;-36
2022/01/19 01:22:41;;;;;;;24.30;12.40;;;;;;;2.37;100.00;103151.56;5092845;28;20028;-36
2022/01/19 01:25:07;;;;;;;29.40;15.57;;;;;;;2.28;100.00;103138.94;5093953;28;20122;-36
2022/01/19 01:27:33;;;;;;;23.85;14.25;;;;;;;2.26;100.00;103123.06;5092838;28;20142;-36
2022/01/19 01:29:59;;;;;;;31.88;15.52;;;;;;;2.29;100.00;103122.81;5091995;28;20040;-36
2022/01/19 01:32:24;;;;;;;27.00;15.00;;;;;;;2.25;100.00;103121.38;5092538;28;20115;-36
2022/01/19 01:34:50;;;;;;;27.23;15.23;;;;;;;2.21;100.00;103095.88;5093033;28;20024;-36
2022/01/19 01:37:16;;;;;;;27.20;15.20;;;;;;;2.19;100.00;103088.94;5092575;28;20376;-36
2022/01/19 01:39:42;;;;;;;27.23;15.43;;;;;;;2.21;100.00;103079.84;5093105;28;20432;-36
2022/01/19 01:42:12;;;;;;;29.02;16.40;;;;;;;2.30;100.00;103068.44;5092365;28;20024;-36
2022/01/19 01:44:39;;;;;;;27.35;14.52;;;;;;;2.35;100.00;103068.09;5093095;28;20031;-36
2022/01/19 01:47:06;;;;;;;31.08;15.27;;;;;;;2.35;100.00;103060.06;5092498;28;20442;-36
2022/01/19 01:54:56;;;;;;;28.55;16.83;;;;;;;2.28;100.00;103093.56;5093145;28;20046;-36
2022/01/19 01:57:22;;;;;;;27.83;15.63;;;;;;;2.29;100.00;103093.47;5092401;28;20103;-36
2022/01/19 01:59:48;;;;;;;22.75;13.02;;;;;;;2.31;100.00;103088.84;5092401;28;20016;-36
2022/01/19 02:02:14;;;;;;;28.15;14.65;;;;;;;2.28;100.00;103096.22;5092722;28;20452;-36
2022/01/19 02:04:41;;;;;;;23.33;14.77;;;;;;;2.28;100.00;103096.22;5092898;28;20028;-36
2022/01/19 02:09:47;;;;;;;21.90;13.63;;;;;;;2.22;100.00;103086.03;5093131;28;20062;-36
2022/01/19 02:23:21;;;;;;;27.52;14.25;;;;;;;2.17;100.00;103034.84;5095763;28;20051;-36
2022/01/19 02:25:53;;;;;;;30.77;16.42;;;;;;;2.14;100.00;103027.91;5096870;28;20032;-36
2022/01/19 02:40:06;;;;;;;27.85;15.60;;;;;;;1.98;100.00;102996.25;5096016;28;20036;-36
2022/01/19 02:42:09;;;;;;;32.35;17.25;;;;;;;1.92;100.00;102990.56;5095764;28;20089;-36
2022/01/19 02:49:42;;;;;;;25.67;15.10;;;;;;;1.96;100.00;102986.69;5095819;28;20118;-36
2022/01/19 02:52:08;;;;;;;22.80;13.45;;;;;;;1.94;100.00;102983.28;5095551;28;20112;-36
2022/01/19 02:54:34;;;;;;;31.83;16.35;;;;;;;1.89;100.00;102964.13;5095741;28;20149;-36
2022/01/19 02:57:01;;;;;;;26.73;16.13;;;;;;;1.78;100.00;102936.50;5095768;28;20024;-36
2022/01/19 03:00:00;;;;;;;29.33;15.82;;;;;;;1.93;100.00;102936.22;5095991;28;20443;-36
2022/01/19 03:10:26;;;;;;;26.02;15.50;;;;;;;1.85;100.00;102904.81;5095548;28;20051;-36
2022/01/19 03:12:52;;;;;;;20.27;13.47;;;;;;;1.86;100.00;102903.03;5095232;28;20032;-36
2022/01/19 03:15:17;;;;;;;28.77;16.20;;;;;;;1.72;100.00;102883.63;5095101;28;20034;-36
2022/01/19 03:17:42;;;;;;;33.80;19.27;;;;;;;1.76;100.00;102895.75;5095335;28;20024;-36
2022/01/19 03:20:10;;;;;;;33.57;18.83;;;;;;;1.58;100.00;102894.56;5095338;28;20479;-36
2022/01/19 03:23:20;;;;;;;31.33;20.00;;;;;;;1.57;100.00;102892.88;5095079;28;20058;-36
2022/01/19 03:25:24;;;;;;;32.30;18.98;;;;;;;1.43;100.00;102866.44;5089264;28;20044;-36
2022/01/19 03:27:50;;;;;;;32.70;19.38;;;;;;;1.39;100.00;102875.66;5094691;28;20107;-36
2022/01/19 03:30:17;;;;;;;33.37;18.20;;;;;;;1.60;100.00;102889.09;5095115;28;20043;-36
2022/01/19 03:32:42;;;;;;;28.77;18.33;;;;;;;1.52;100.00;102876.38;5095256;28;20036;-36
2022/01/19 03:35:11;;;;;;;31.50;16.85;;;;;;;1.66;100.00;102892.13;5094876;28;20126;-36
2022/01/19 03:37:37;;;;;;;28.77;16.02;;;;;;;1.45;100.00;102876.00;5094354;28;20028;-36
2022/01/19 03:40:05;;;;;;;31.70;18.08;;;;;;;1.43;100.00;102879.78;5094663;28;20024;-36
2022/01/19 03:42:30;;;;;;;33.30;18.25;;;;;;;1.37;100.00;102862.44;5095133;28;20062;-36
2022/01/19 03:44:55;;;;;;;32.37;20.13;;;;;;;1.35;100.00;102866.19;5094578;28;20099;-36
2022/01/19 03:47:21;;;;;;;28.00;18.93;;;;;;;1.42;100.00;102868.28;5094169;28;20036;-36
2022/01/19 03:49:46;;;;;;;37.60;19.97;;;;;;;1.30;100.00;102855.91;5095043;28;20028;-36
2022/01/19 03:52:12;;;;;;;32.43;19.03;;;;;;;1.32;100.00;102853.09;5092610;28;20377;-36
2022/01/19 03:54:41;;;;;;;34.47;19.73;;;;;;;1.23;100.00;102844.88;5095068;28;20024;-36
2022/01/19 03:57:07;;;;;;;36.00;20.55;;;;;;;1.19;100.00;102842.56;5094269;28;20041;-36
2022/01/19 03:59:32;;;;;;;34.80;19.05;;;;;;;1.14;100.00;102840.28;5093360;28;20051;-36
2022/01/19 04:02:01;;;;;;;33.03;18.67;;;;;;;1.21;100.00;102840.63;5094209;28;20028;-36
2022/01/19 04:07:08;;;;;;;31.88;19.33;;;;;;;1.15;100.00;102830.47;5094168;28;20059;-36
2022/01/19 04:09:37;;;;;;;31.38;19.00;;;;;;;1.12;100.00;102826.19;5094386;28;20448;-36
2022/01/19 04:12:03;;;;;;;37.33;20.48;;;;;;;1.10;100.00;102819.31;5094366;28;20032;-36
2022/01/19 04:14:29;;;;;;;36.72;21.40;;;;;;;1.17;100.00;102821.38;5094532;28;20097;-36
2022/01/19 04:17:04;;;;;;;37.85;21.40;;;;;;;1.09;100.00;102831.78;5094325;28;20452;-36
2022/01/19 04:19:40;;;;;;;36.03;20.80;;;;;;;1.17;100.00;102832.03;5094567;28;20094;-36
2022/01/19 04:22:08;;;;;;;35.78;21.38;;;;;;;1.15;100.00;102833.97;5093017;28;20024;-36
2022/01/19 04:24:34;;;;;;;35.90;20.25;;;;;;;1.23;100.00;102834.22;5094300;28;20192;-36
2022/01/19 04:29:52;;;;;;;38.25;19.77;;;;;;;1.21;100.00;102832.63;5093903;28;19912;-36
2022/01/19 04:32:23;;;;;;;;;;;;;;;1.32;100.00;102834.44;5093734;28;20111;-36
2022/01/19 04:34:50;;;;;;;34.78;19.55;;;;;;;1.20;100.00;102836.28;5094039;28;19912;-36
2022/01/19 05:06:15;;;;;;;39.73;22.50;;;;;;;1.08;100.00;102799.94;5093751;28;20040;-36
2022/01/19 05:13:53;;;;;;;56.33;29.08;;;;;;;1.12;100.00;102809.38;5093377;28;20105;-36
2022/01/19 05:16:20;;;;;;;50.73;27.00;;;;;;;1.12;100.00;102818.22;5092733;28;20028;-36
2022/01/19 05:18:47;;;;;;;48.67;27.25;;;;;;;1.16;100.00;102818.81;5092992;28;20028;-36
2022/01/19 05:21:12;;;;;;;53.97;29.40;;;;;;;1.10;100.00;102820.16;5093633;28;20028;-36
2022/01/19 05:23:38;;;;;;;60.23;30.93;;;;;;;0.98;100.00;102797.16;5091162;28;20105;-36
2022/01/19 05:26:03;;;;;;;57.03;30.67;;;;;;;0.98;100.00;102816.66;5092926;28;20031;-36
2022/01/19 05:28:29;;;;;;;54.58;29.08;;;;;;;0.86;100.00;102806.09;5092920;28;20028;-36
2022/01/19 05:30:54;;;;;;;55.40;28.87;;;;;;;0.99;100.00;102817.50;5093105;28;20085;-36
2022/01/19 05:33:19;;;;;;;51.73;28.17;;;;;;;0.99;100.00;102813.00;5092956;28;20514;-36
2022/01/19 05:35:45;;;;;;;52.60;27.77;;;;;;;0.94;100.00;102793.88;5093481;28;20368;-36
2022/01/19 05:38:10;;;;;;;50.30;26.93;;;;;;;0.97;100.00;102798.09;5092939;28;20036;-36
2022/01/19 05:40:36;;;;;;;50.80;28.03;;;;;;;0.98;100.00;102799.81;5092968;28;20074;-36
2022/01/19 05:43:02;;;;;;;47.35;25.90;;;;;;;1.00;100.00;102795.22;5093502;28;20471;-36
2022/01/19 05:45:27;;;;;;;43.47;24.73;;;;;;;0.96;100.00;102785.75;5095360;28;20062;-36
2022/01/19 05:47:53;;;;;;;44.05;25.05;;;;;;;1.01;100.00;102794.22;5097150;28;20111;-36
2022/01/19 05:50:18;;;;;;;44.50;25.77;;;;;;;1.03;100.00;102798.50;5097210;28;20024;-36
2022/01/19 05:52:43;;;;;;;43.73;25.53;;;;;;;1.03;100.00;102789.66;5096839;28;20277;-36
2022/01/19 05:55:09;;;;;;;44.43;24.80;;;;;;;0.97;100.00;102790.09;5096706;28;20105;-36
2022/01/19 05:57:34;;;;;;;41.80;24.63;;;;;;;1.06;100.00;102797.38;5096589;28;20107;-36
2022/01/19 06:00:00;;;;;;;40.97;22.47;;;;;;;1.18;100.00;102791.09;5096661;28;20272;-35
2022/01/19 06:02:25;;;;;;;38.97;23.03;;;;;;;1.09;100.00;102793.63;5096277;28;20028;-35
2022/01/19 06:04:51;;;;;;;36.07;23.17;;;;;;;1.14;100.00;102786.97;5097109;28;20024;-35
2022/01/19 06:07:16;;;;;;;41.37;23.60;;;;;;;1.13;100.00;102785.28;5096388;28;20024;-36
2022/01/19 06:12:10;;;;;;;37.63;22.03;;;;;;;1.14;100.00;102778.13;5096464;28;20044;-37
2022/01/19 06:14:37;;;;;;;38.38;23.30;;;;;;;1.16;100.00;102781.50;5097099;28;20274;-37
2022/01/19 06:17:05;;;;;;;33.83;21.63;;;;;;;1.15;100.00;102778.00;5096860;28;20093;-37
2022/01/19 06:19:30;;;;;;;36.17;22.05;;;;;;;1.14;100.00;102778.97;5096719;28;20024;-37
2022/01/19 06:21:56;;;;;;;35.20;21.77;;;;;;;1.12;100.00;102766.72;5094144;28;20047;-37
2022/01/19 06:24:21;;;;;;;32.07;21.23;;;;;;;1.11;100.00;102754.38;5096414;28;20055;-37
2022/01/19 06:26:47;;;;;;;31.63;21.25;;;;;;;1.19;100.00;102759.97;5095885;28;20055;-37
2022/01/19 06:29:13;;;;;;;33.42;22.33;;;;;;;1.21;100.00;102750.00;5096231;28;20107;-37
2022/01/19 06:31:39;;;;;;;;;;;;;;;1.28;100.00;102753.91;5096923;28;20039;-37
2022/01/19 06:34:04;;;;;;;33.75;21.45;;;;;;;1.23;100.00;102737.44;5096544;28;19912;-37
2022/01/19 06:36:29;;;;;;;34.00;21.87;;;;;;;1.19;100.00;102735.97;5096221;28;20111;-37
2022/01/19 06:38:55;;;;;;;32.80;21.13;;;;;;;1.16;100.00;102729.06;5096480;28;20456;-37
2022/01/19 06:41:20;;;;;;;33.97;21.03;;;;;;;1.19;100.00;102735.97;5095789;28;20023;-37
2022/01/19 06:43:45;;;;;;;35.13;22.33;;;;;;;1.20;100.00;102727.00;5096157;28;20110;-37
2022/01/19 06:46:11;;;;;;;34.43;21.97;;;;;;;1.19;100.00;102731.50;5095927;28;20032;-37
2022/01/19 06:48:36;;;;;;;40.88;23.48;;;;;;;1.16;100.00;102731.72;5095711;28;20024;-37
2022/01/19 06:51:02;;;;;;;35.30;22.80;;;;;;;1.18;100.00;102721.81;5095424;28;20137;-37
2022/01/19 06:53:27;;;;;;;33.47;21.60;;;;;;;1.21;100.00;102724.19;5096197;28;20611;-37
2022/01/19 06:55:57;;;;;;;34.23;22.03;;;;;;;1.08;100.00;102691.53;5095090;28;20028;-37
2022/01/19 06:58:23;;;;;;;34.10;22.40;;;;;;;1.25;100.00;102704.34;5095442;28;20028;-37
2022/01/19 07:00:48;;;;;;;29.85;19.95;;;;;;;1.27;100.00;102710.41;5096383;28;20508;-37
2022/01/19 07:03:13;;;;;;;39.20;22.73;;;;;;;1.32;100.00;102703.81;5095478;28;20107;-37
2022/01/19 07:05:40;;;;;;;36.47;21.97;;;;;;;1.32;100.00;102709.16;5096103;28;20341;-37
2022/01/19 07:08:05;;;;;;;;;;;;;;;1.40;100.00;102704.91;5095982;28;20028;-37
2022/01/19 07:10:31;;;;;;;31.83;20.10;;;;;;;1.37;100.00;102707.00;5095376;28;19908;-37
2022/01/19 07:12:58;;;;;;;29.02;19.25;;;;;;;1.41;100.00;102705.75;5095356;28;20085;-37
2022/01/19 07:15:24;;;;;;;33.72;21.15;;;;;;;1.37;100.00;102702.50;5095602;28;20111;-37
2022/01/19 07:17:49;;;;;;;31.63;20.30;;;;;;;1.44;100.00;102703.69;5095339;28;20052;-37
2022/01/19 07:20:15;;;;;;;34.60;21.73;;;;;;;1.41;100.00;102692.41;5095475;28;20337;-37
2022/01/19 07:22:40;;;;;;;35.13;22.17;;;;;;;1.24;100.00;102668.00;5095232;28;20475;-37
2022/01/19 07:25:06;;;;;;;32.60;21.07;;;;;;;1.40;100.00;102701.41;5095458;28;20040;-37
2022/01/19 07:27:31;;;;;;;35.73;21.10;;;;;;;1.45;100.00;102691.19;5096047;28;20429;-37
2022/01/19 07:29:56;;;;;;;31.50;20.80;;;;;;;1.37;100.00;102678.50;5094970;28;20255;-37
2022/01/19 07:32:24;;;;;;;32.40;20.67;;;;;;;1.45;100.00;102691.19;5094603;28;20039;-37
2022/01/19 07:34:49;;;;;;;30.05;20.10;;;;;;;1.34;100.00;102670.75;5095067;28;20024;-37
2022/01/19 07:37:14;;;;;;;31.67;20.00;;;;;;;1.41;100.00;102676.41;5094817;28;20028;-37
2022/01/19 07:39:40;;;;;;;32.60;20.87;;;;;;;1.51;100.00;102683.56;5094581;28;20020;-37
2022/01/19 07:42:05;;;;;;;33.83;23.13;;;;;;;1.48;100.00;102685.63;5094999;28;20035;-37
2022/01/19 07:44:32;;;;;;;32.03;21.08;;;;;;;1.51;100.00;102683.56;5094890;28;20110;-37
2022/01/19 07:46:57;;;;;;;34.72;20.65;;;;;;;1.50;100.00;102687.19;5093525;28;20446;-37
2022/01/19 07:49:23;;;;;;;33.63;21.67;;;;;;;1.41;100.00;102674.59;5093111;28;20103;-37
2022/01/19 07:51:48;;;;;;;31.67;20.93;;;;;;;1.50;100.00;102689.00;5094585;28;20447;-37
2022/01/19 07:54:13;;;;;;;33.47;20.33;;;;;;;1.40;100.00;102659.59;5095300;28;20066;-37
2022/01/19 07:56:39;;;;;;;34.93;21.53;;;;;;;1.53;100.00;102681.59;5094485;28;20028;-37
2022/01/19 07:59:05;;;;;;;31.40;19.70;;;;;;;1.55;100.00;102676.13;5094727;28;20472;-37
2022/01/19 08:01:31;;;;;;;35.20;22.60;;;;;;;1.41;100.00;102655.09;5094956;28;20120;-37
2022/01/19 08:03:57;;;;;;;;;;;;;;;1.66;100.00;102675.22;5094766;28;20032;-37
2022/01/19 08:06:23;;;;;;;33.55;21.80;;;;;;;1.28;100.00;102625.97;5094194;28;19957;-37
2022/01/19 08:08:48;;;;;;;32.07;20.60;;;;;;;1.62;100.00;102680.00;5093567;28;20036;-37
2022/01/19 08:11:13;;;;;;;30.30;20.60;;;;;;;1.54;100.00;102655.78;5094111;28;20024;-37
2022/01/19 08:13:39;;;;;;;31.03;20.93;;;;;;;1.63;100.00;102665.69;5094751;28;20065;-37
2022/01/19 08:16:04;;;;;;;29.50;20.63;;;;;;;1.57;100.00;102641.34;5094831;28;20783;-37
2022/01/19 08:18:30;;;;;;;32.43;21.40;;;;;;;1.54;100.00;102645.13;5093711;28;20046;-37
2022/01/19 08:20:55;;;;;;;33.33;21.30;;;;;;;1.65;100.00;102650.38;5094748;28;20254;-37
2022/01/19 08:23:20;;;;;;;29.10;19.97;;;;;;;1.60;100.00;102641.94;5094060;28;20106;-37
2022/01/19 08:25:46;;;;;;;32.33;21.40;;;;;;;1.72;100.00;102659.59;5094199;28;20375;-37
2022/01/19 08:28:11;;;;;;;31.57;21.50;;;;;;;1.73;100.00;102666.59;5094336;28;20452;-37
2022/01/19 08:30:37;;;;;;;30.13;20.77;;;;;;;1.74;100.00;102662.97;5093495;28;20028;-37
2022/01/19 08:33:02;;;;;;;30.45;20.70;;;;;;;1.77;100.00;102656.53;5093502;28;20032;-37
2022/01/19 08:35:28;;;;;;;28.63;20.27;;;;;;;1.78;100.00;102659.06;5093502;28;20396;-37
2022/01/19 08:37:54;;;;;;;32.87;21.47;;;;;;;1.77;100.00;102653.88;5093985;28;20028;-37
2022/01/19 08:40:25;;;;;;;31.48;21.67;;;;;;;1.74;100.00;102638.09;5094354;28;20497;-37
2022/01/19 08:42:51;;;;;;;32.17;21.55;;;;;;;1.78;100.00;102643.06;5093498;28;20107;-37
2022/01/19 08:45:17;;;;;;;29.92;21.38;;;;;;;1.84;100.00;102635.50;5094120;28;20047;-37
2022/01/19 08:47:42;;;;;;;30.50;20.42;;;;;;;1.79;100.00;102617.22;5093287;28;20460;-37
2022/01/19 08:50:11;;;;;;;29.77;20.83;;;;;;;1.85;100.00;102629.19;5093451;28;20114;-37
2022/01/19 08:52:36;;;;;;;32.42;20.95;;;;;;;1.90;100.00;102619.81;5094150;28;20364;-37
2022/01/19 08:55:03;;;;;;;28.83;20.55;;;;;;;1.89;100.00;102623.47;5093901;28;20039;-37
2022/01/19 08:57:28;;;;;;;29.30;20.92;;;;;;;1.94;100.00;102620.41;5093343;28;20049;-37
2022/01/19 08:59:54;;;;;;;30.77;20.93;;;;;;;1.95;100.00;102614.09;5093368;28;20028;-37
2022/01/19 09:02:19;;;;;;;31.23;20.97;;;;;;;1.76;100.00;102591.66;5093058;28;20483;-37
2022/01/19 09:04:45;;;;;;;30.00;21.77;;;;;;;1.93;100.00;102614.22;5093910;28;20024;-37
2022/01/19 09:07:11;;;;;;;28.98;21.00;;;;;;;1.94;100.00;102615.06;5093196;28;20044;-37
2022/01/19 09:09:36;;;;;;;29.95;20.77;;;;;;;1.97;100.00;102613.00;5093594;28;20365;-37
2022/01/19 09:12:02;;;;;;;32.77;21.13;;;;;;;1.99;100.00;102612.84;5093057;28;20035;-37
2022/01/19 09:14:30;;;;;;;32.33;21.13;;;;;;;2.01;100.00;102595.75;5093125;28;20032;-37
2022/01/19 09:16:55;;;;;;;31.95;22.15;;;;;;;1.98;100.00;102603.16;5092953;28;20096;-37
2022/01/19 09:19:20;;;;;;;29.07;19.97;;;;;;;2.05;100.00;102588.34;5093196;28;20114;-37
2022/01/19 09:21:47;;;;;;;31.17;21.47;;;;;;;2.08;100.00;102589.88;5092957;28;20032;-37
2022/01/19 09:24:12;;;;;;;25.98;19.10;;;;;;;2.17;100.00;102603.28;5093161;28;20080;-37
2022/01/19 09:26:38;;;;;;;30.10;20.10;;;;;;;2.13;100.00;102599.16;5093018;28;20107;-37
2022/01/19 09:29:04;;;;;;;28.50;19.42;;;;;;;2.05;100.00;102575.00;5093580;28;20024;-37
2022/01/19 09:31:29;;;;;;;28.45;20.60;;;;;;;2.15;100.00;102591.91;5092899;28;20024;-37
2022/01/19 09:34:05;;;;;;;25.80;19.88;;;;;;;2.19;100.00;102587.94;5092886;28;20032;-37
2022/01/19 09:36:34;;;;;;;27.88;19.45;;;;;;;2.09;100.00;102557.72;5092787;28;20492;-37
2022/01/19 09:39:00;;;;;;;31.35;21.70;;;;;;;2.21;100.00;102572.66;5093042;28;20474;-37
2022/01/19 09:41:25;;;;;;;28.02;20.95;;;;;;;2.12;100.00;102554.78;5092544;28;20028;-37
2022/01/19 09:43:51;;;;;;;27.58;19.55;;;;;;;2.25;100.00;102566.09;5093061;28;20352;-37
2022/01/19 09:46:17;;;;;;;30.60;21.92;;;;;;;2.18;100.00;102543.56;5092476;28;20056;-37
2022/01/19 09:48:42;;;;;;;32.83;20.88;;;;;;;2.27;100.00;102553.44;5093027;28;20050;-37
2022/01/19 09:51:08;;;;;;;27.53;19.50;;;;;;;2.29;100.00;102553.28;5092979;28;20032;-37
2022/01/19 09:53:33;;;;;;;31.17;20.33;;;;;;;2.31;100.00;102551.34;5093086;28;20059;-37
2022/01/19 09:55:59;;;;;;;29.13;21.00;;;;;;;2.30;100.00;102547.00;5093703;28;20024;-37
2022/01/19 09:58:24;;;;;;;29.13;20.50;;;;;;;2.26;100.00;102532.22;5092425;28;20036;-37
2022/01/19 10:00:50;;;;;;;26.80;20.37;;;;;;;2.35;100.00;102544.75;5093099;28;20035;-37
2022/01/19 10:03:19;;;;;;;;;;;;;;;2.41;100.00;102538.88;5093220;28;20476;-37
2022/01/19 10:06:07;;;;;;;26.90;20.38;;;;;;;2.41;100.00;102532.69;5092853;28;19934;-37
2022/01/19 10:08:33;;;;;;;32.70;22.30;;;;;;;2.41;100.00;102524.69;5092513;28;20032;-37
2022/01/19 10:17:04;;;;;;;30.13;20.88;;;;;;;2.49;100.00;102530.16;5050004;28;20571;-37
2022/01/19 10:19:36;;;;;;;28.45;20.83;;;;;;;2.50;100.00;102531.88;5033798;28;20037;-37
2022/01/19 10:22:16;;;;;;;30.00;20.90;;;;;;;2.52;100.00;102524.56;5049968;28;20032;-37
2022/01/19 10:24:50;;;;;;;31.20;21.38;;;;;;;2.54;100.00;102515.44;5049431;28;20568;-37
2022/01/19 10:27:45;;;;;;;28.73;21.58;;;;;;;2.55;100.00;102514.47;5050238;28;20161;-37
2022/01/19 10:30:14;;;;;;;25.48;19.42;;;;;;;2.61;100.00;102507.72;5049948;28;20452;-37
2022/01/19 10:32:48;;;;;;;27.90;20.90;;;;;;;2.61;100.00;102502.38;5053124;28;20029;-37
2022/01/19 10:35:17;;;;;;;25.38;19.65;;;;;;;2.64;100.00;102501.28;5053827;28;20439;-37
2022/01/19 10:37:45;;;;;;;28.05;20.58;;;;;;;2.66;100.00;102499.28;5053380;28;20037;-37
2022/01/19 10:40:18;;;;;;;29.58;20.65;;;;;;;2.68;100.00;102492.81;5053543;28;20445;-37
2022/01/19 10:42:45;;;;;;;25.27;19.70;;;;;;;2.65;100.00;102487.75;5053079;28;20051;-37
2022/01/19 10:45:11;;;;;;;;;;;;;;;2.79;100.00;102495.38;5053710;28;20029;-37
2022/01/19 10:47:55;;;;;;;30.55;20.23;;;;;;;2.70;100.00;102480.19;5053648;28;20276;-37
2022/01/19 10:50:25;;;;;;;25.75;20.70;;;;;;;2.79;100.00;102486.50;5066300;28;20556;-37
2022/01/19 10:52:53;;;;;;;27.27;21.15;;;;;;;2.81;100.00;102485.38;5095652;28;20036;-37
2022/01/19 10:55:18;;;;;;;32.45;22.65;;;;;;;2.83;100.00;102480.75;5096374;28;20035;-37
2022/01/19 10:57:45;;;;;;;30.77;20.90;;;;;;;2.91;100.00;102481.88;5095214;28;20032;-35
2022/01/19 11:00:13;;;;;;;31.38;22.52;;;;;;;2.87;100.00;102462.59;5095681;28;20028;-35
2022/01/19 11:02:39;;;;;;;30.00;21.63;;;;;;;2.91;100.00;102472.03;5095244;28;20422;-35
2022/01/19 11:05:05;;;;;;;29.40;20.75;;;;;;;2.89;100.00;102457.13;5095125;28;20036;-35
2022/01/19 11:07:30;;;;;;;;;;;;;;;2.97;100.00;102466.09;5096192;28;20028;-35
2022/01/19 11:09:57;;;;;;;27.20;19.92;;;;;;;2.97;100.00;102475.94;5095555;28;20326;-35
2022/01/19 11:12:28;;;;;;;26.55;19.45;;;;;;;3.00;100.00;102454.31;5095685;28;20032;-35
2022/01/19 11:14:53;;;;;;;31.83;21.42;;;;;;;3.01;100.00;102447.97;5095433;28;20376;-35
2022/01/19 11:17:19;;;;;;;28.40;20.33;;;;;;;3.03;100.00;102451.34;5094933;28;20031;-35
2022/01/19 11:19:44;;;;;;;30.53;21.07;;;;;;;3.03;100.00;102441.50;5095688;28;20372;-35
2022/01/19 11:22:10;;;;;;;26.77;20.02;;;;;;;3.07;100.00;102444.72;5095421;28;20107;-35
2022/01/19 11:24:43;;;;;;;29.27;21.73;;;;;;;2.90;100.00;102416.06;5095769;28;20044;-35
2022/01/19 11:27:10;;;;;;;27.40;20.15;;;;;;;3.07;100.00;102436.69;5094909;28;20052;-35
2022/01/19 11:29:38;;;;;;;27.95;21.70;;;;;;;3.09;100.00;102429.41;5095051;28;20119;-36
2022/01/19 11:32:19;;;;;;;30.25;21.55;;;;;;;2.98;100.00;102392.16;5094555;28;20487;-35
2022/01/19 11:34:49;;;;;;;27.77;20.55;;;;;;;3.06;100.00;102402.94;5095071;28;20020;-35
2022/01/19 11:37:35;;;;;;;29.67;21.70;;;;;;;3.01;100.00;102384.66;5094802;28;20110;-35
2022/01/19 11:40:00;;;;;;;31.45;21.70;;;;;;;3.01;100.00;102389.16;5094979;28;20516;-35
2022/01/19 11:42:26;;;;;;;34.97;21.70;;;;;;;3.12;100.00;102399.69;5094817;28;20131;-35
2022/01/19 11:44:51;;;;;;;32.83;22.07;;;;;;;3.04;100.00;102381.72;5094957;28;20429;-36
2022/01/19 11:47:21;;;;;;;27.17;21.70;;;;;;;3.12;100.00;102389.00;5095059;28;20026;-36
2022/01/19 11:49:49;;;;;;;29.08;21.98;;;;;;;3.05;100.00;102364.69;5095103;28;20067;-37
2022/01/19 11:52:19;;;;;;;31.55;22.33;;;;;;;3.08;100.00;102368.91;5094725;28;20039;-35
2022/01/19 11:54:45;;;;;;;33.97;23.08;;;;;;;3.15;100.00;102383.38;5094087;28;20024;-35
2022/01/19 11:57:16;;;;;;;29.35;21.88;;;;;;;3.17;100.00;102368.00;5094319;28;20031;-36
2022/01/19 11:59:47;;;;;;;32.40;24.15;;;;;;;3.18;100.00;102359.03;5094732;28;20114;-36
2022/01/19 12:02:24;;;;;;;35.15;24.95;;;;;;;3.17;100.00;102360.00;5094712;28;20020;-36
2022/01/19 12:04:58;;;;;;;31.95;22.80;;;;;;;3.19;100.00;102358.03;5094683;28;20024;-35
2022/01/19 12:07:38;;;;;;;33.20;24.13;;;;;;;3.20;100.00;102351.69;5094326;28;20063;-35
2022/01/19 12:10:07;;;;;;;35.85;24.15;;;;;;;3.16;100.00;102334.25;5094547;28;20047;-35
2022/01/19 12:12:38;;;;;;;37.78;26.77;;;;;;;3.12;100.00;102314.16;5093839;28;20039;-35
2022/01/19 12:15:07;;;;;;;41.15;29.10;;;;;;;3.20;100.00;102316.09;5093753;28;20024;-35
2022/01/19 12:17:57;;;;;;;41.90;28.30;;;;;;;3.25;100.00;102321.84;5094444;28;20036;-35
2022/01/19 12:20:51;;;;;;;42.08;28.88;;;;;;;3.33;100.00;102314.78;5093613;28;20484;-36
2022/01/19 12:23:34;;;;;;;42.22;26.90;;;;;;;3.24;100.00;102296.94;5093536;28;20047;-35
2022/01/19 12:26:02;;;;;;;39.60;28.48;;;;;;;3.34;100.00;102297.75;5094603;28;20032;-36
2022/01/19 12:28:45;;;;;;;45.15;29.63;;;;;;;3.42;100.00;102296.19;5093780;28;20035;-36
2022/01/19 12:31:31;;;;;;;39.65;28.33;;;;;;;3.46;100.00;102301.06;5093991;28;20381;-36
2022/01/19 12:34:03;;;;;;;39.70;29.08;;;;;;;3.39;100.00;102280.41;5094460;28;20024;-36
2022/01/19 12:36:47;;;;;;;43.17;28.92;;;;;;;3.51;100.00;102289.91;5094270;28;20036;-36
2022/01/19 12:39:24;;;;;;;45.30;30.67;;;;;;;3.50;100.00;102290.91;5093627;28;20023;-36
2022/01/19 12:41:55;;;;;;;42.45;29.45;;;;;;;3.50;100.00;102286.41;5093606;28;20440;-36
2022/01/19 12:44:35;;;;;;;44.97;30.27;;;;;;;3.55;100.00;102284.13;5094079;28;20118;-36
2022/01/19 12:47:24;;;;;;;48.42;32.35;;;;;;;3.56;100.00;102279.59;5094207;28;20196;-36
2022/01/19 12:49:50;;;;;;;43.40;30.20;;;;;;;3.58;100.00;102269.63;5093747;28;20028;-36
2022/01/19 12:52:18;;;;;;;45.67;30.77;;;;;;;3.56;100.00;102264.44;5093769;28;20032;-36